sensor_id;sensor_type;location;lat;lon;timestamp;temperature;humidity
52531;DHT22;38441;52.894;6.040;2023-02-13T00:00:31;6.90;99.90
52531;DHT22;38441;52.894;6.040;2023-02-13T00:02:57;6.50;99.90
52531;DHT22;38441;52.894;6.040;2023-02-13T00:05:23;6.80;99.90
52531;DHT22;38441;52.894;6.040;2023-02-13T00:07:48;6.90;99.90
52531;DHT22;38441;52.894;6.040;2023-02-13T00:10:14;6.80;99.90
52531;DHT22;38441;52.894;6.040;2023-02-13T00:12:40;6.80;99.90
52531;DHT22;38441;52.894;6.040;2023-02-13T00:15:06;7.10;99.90
52531;DHT22;38441;52.894;6.040;2023-02-13T00:19:58;6.80;99.90
52531;DHT22;38441;52.894;6.040;2023-02-13T00:22:24;6.80;99.90
52531;DHT22;38441;52.894;6.040;2023-02-13T00:24:49;6.80;99.90
52531;DHT22;38441;52.894;6.040;2023-02-13T00:32:08;6.80;99.90
52531;DHT22;38441;52.894;6.040;2023-02-13T00:34:33;6.80;99.90
52531;DHT22;38441;52.894;6.040;2023-02-13T00:36:59;6.80;99.90
52531;DHT22;38441;52.894;6.040;2023-02-13T00:39:25;6.80;99.90
52531;DHT22;38441;52.894;6.040;2023-02-13T00:41:50;6.80;99.90
52531;DHT22;38441;52.894;6.040;2023-02-13T00:54:00;6.80;99.90
52531;DHT22;38441;52.894;6.040;2023-02-13T00:56:26;6.80;99.90
52531;DHT22;38441;52.894;6.040;2023-02-13T00:58:51;6.60;99.90
52531;DHT22;38441;52.894;6.040;2023-02-13T01:03:43;6.70;99.90
52531;DHT22;38441;52.894;6.040;2023-02-13T01:06:09;6.70;99.90
52531;DHT22;38441;52.894;6.040;2023-02-13T01:08:37;6.60;99.90
52531;DHT22;38441;52.894;6.040;2023-02-13T01:11:03;6.70;99.90
52531;DHT22;38441;52.894;6.040;2023-02-13T01:13:28;6.70;99.90
52531;DHT22;38441;52.894;6.040;2023-02-13T01:18:20;6.80;99.90
52531;DHT22;38441;52.894;6.040;2023-02-13T01:21:01;6.60;99.90
52531;DHT22;38441;52.894;6.040;2023-02-13T01:23:31;6.60;99.90
52531;DHT22;38441;52.894;6.040;2023-02-13T01:25:58;6.70;99.90
52531;DHT22;38441;52.894;6.040;2023-02-13T01:28:24;6.70;99.90
52531;DHT22;38441;52.894;6.040;2023-02-13T01:30:56;6.60;99.90
52531;DHT22;38441;52.894;6.040;2023-02-13T01:33:23;6.60;99.90
52531;DHT22;38441;52.894;6.040;2023-02-13T01:35:50;6.80;99.90
52531;DHT22;38441;52.894;6.040;2023-02-13T01:40:51;6.60;99.90
52531;DHT22;38441;52.894;6.040;2023-02-13T01:43:17;6.80;99.90
52531;DHT22;38441;52.894;6.040;2023-02-13T01:45:46;6.70;99.90
52531;DHT22;38441;52.894;6.040;2023-02-13T01:48:16;6.70;99.90
52531;DHT22;38441;52.894;6.040;2023-02-13T01:50:49;6.60;99.90
52531;DHT22;38441;52.894;6.040;2023-02-13T01:53:38;6.40;99.90
52531;DHT22;38441;52.894;6.040;2023-02-13T01:56:16;6.70;99.90
52531;DHT22;38441;52.894;6.040;2023-02-13T01:58:45;6.70;99.90
52531;DHT22;38441;52.894;6.040;2023-02-13T02:01:12;6.60;99.90
52531;DHT22;38441;52.894;6.040;2023-02-13T02:03:46;6.70;99.90
52531;DHT22;38441;52.894;6.040;2023-02-13T02:06:37;6.60;99.90
52531;DHT22;38441;52.894;6.040;2023-02-13T02:09:06;8.00;99.90
52531;DHT22;38441;52.894;6.040;2023-02-13T02:14:32;6.60;99.90
52531;DHT22;38441;52.894;6.040;2023-02-13T02:16:58;6.70;99.90
52531;DHT22;38441;52.894;6.040;2023-02-13T02:22:45;6.70;99.90
52531;DHT22;38441;52.894;6.040;2023-02-13T02:28:15;6.60;99.90
52531;DHT22;38441;52.894;6.040;2023-02-13T02:33:20;6.60;99.90
52531;DHT22;38441;52.894;6.040;2023-02-13T02:38:49;6.60;99.90
52531;DHT22;38441;52.894;6.040;2023-02-13T02:46:38;6.70;99.90
52531;DHT22;38441;52.894;6.040;2023-02-13T02:49:26;6.70;99.90
52531;DHT22;38441;52.894;6.040;2023-02-13T02:52:18;6.60;99.90
52531;DHT22;38441;52.894;6.040;2023-02-13T02:54:52;6.60;99.90
52531;DHT22;38441;52.894;6.040;2023-02-13T02:57:33;6.60;99.90
52531;DHT22;38441;52.894;6.040;2023-02-13T03:00:21;6.60;99.90
52531;DHT22;38441;52.894;6.040;2023-02-13T03:03:18;6.60;99.90
52531;DHT22;38441;52.894;6.040;2023-02-13T03:06:15;6.60;99.90
52531;DHT22;38441;52.894;6.040;2023-02-13T03:08:46;6.60;99.90
52531;DHT22;38441;52.894;6.040;2023-02-13T03:11:36;6.60;99.90
52531;DHT22;38441;52.894;6.040;2023-02-13T03:14:24;6.60;99.90
52531;DHT22;38441;52.894;6.040;2023-02-13T03:16:51;6.60;99.90
52531;DHT22;38441;52.894;6.040;2023-02-13T03:19:54;6.60;99.90
52531;DHT22;38441;52.894;6.040;2023-02-13T03:28:33;6.50;99.90
52531;DHT22;38441;52.894;6.040;2023-02-13T03:31:37;6.50;99.90
52531;DHT22;38441;52.894;6.040;2023-02-13T03:34:11;6.60;99.90
52531;DHT22;38441;52.894;6.040;2023-02-13T03:42:32;6.50;99.90
52531;DHT22;38441;52.894;6.040;2023-02-13T03:45:10;6.50;99.90
52531;DHT22;38441;52.894;6.040;2023-02-13T03:47:56;6.50;99.90
52531;DHT22;38441;52.894;6.040;2023-02-13T03:50:24;6.50;99.90
52531;DHT22;38441;52.894;6.040;2023-02-13T03:55:21;6.50;99.90
52531;DHT22;38441;52.894;6.040;2023-02-13T03:58:13;6.50;99.90
52531;DHT22;38441;52.894;6.040;2023-02-13T04:01:01;6.50;99.90
52531;DHT22;38441;52.894;6.040;2023-02-13T04:03:48;6.50;99.90
52531;DHT22;38441;52.894;6.040;2023-02-13T04:06:19;6.50;99.90
52531;DHT22;38441;52.894;6.040;2023-02-13T04:11:23;6.50;99.90
52531;DHT22;38441;52.894;6.040;2023-02-13T04:14:09;6.50;99.90
52531;DHT22;38441;52.894;6.040;2023-02-13T04:16:42;6.60;99.90
52531;DHT22;38441;52.894;6.040;2023-02-13T04:19:09;6.40;99.90
52531;DHT22;38441;52.894;6.040;2023-02-13T04:21:37;6.40;99.90
52531;DHT22;38441;52.894;6.040;2023-02-13T04:24:05;6.40;99.90
52531;DHT22;38441;52.894;6.040;2023-02-13T04:26:38;6.40;99.90
52531;DHT22;38441;52.894;6.040;2023-02-13T04:38:49;6.40;99.90
52531;DHT22;38441;52.894;6.040;2023-02-13T04:43:41;6.40;99.90
52531;DHT22;38441;52.894;6.040;2023-02-13T04:48:32;6.40;99.90
52531;DHT22;38441;52.894;6.040;2023-02-13T04:50:58;6.40;99.90
52531;DHT22;38441;52.894;6.040;2023-02-13T04:55:50;6.50;99.90
52531;DHT22;38441;52.894;6.040;2023-02-13T04:58:16;6.60;99.90
52531;DHT22;38441;52.894;6.040;2023-02-13T05:00:42;6.30;99.90
52531;DHT22;38441;52.894;6.040;2023-02-13T05:03:11;6.40;99.90
52531;DHT22;38441;52.894;6.040;2023-02-13T05:05:37;6.50;99.90
52531;DHT22;38441;52.894;6.040;2023-02-13T05:08:04;6.40;99.90
52531;DHT22;38441;52.894;6.040;2023-02-13T05:17:48;6.10;99.90
52531;DHT22;38441;52.894;6.040;2023-02-13T05:20:15;6.30;99.90
52531;DHT22;38441;52.894;6.040;2023-02-13T05:22:48;6.30;99.90
52531;DHT22;38441;52.894;6.040;2023-02-13T05:25:33;6.30;99.90
52531;DHT22;38441;52.894;6.040;2023-02-13T05:30:25;6.40;99.90
52531;DHT22;38441;52.894;6.040;2023-02-13T05:40:12;6.30;99.90
52531;DHT22;38441;52.894;6.040;2023-02-13T05:42:38;6.30;99.90
52531;DHT22;38441;52.894;6.040;2023-02-13T05:45:04;6.30;99.90
52531;DHT22;38441;52.894;6.040;2023-02-13T05:47:30;6.10;99.90
52531;DHT22;38441;52.894;6.040;2023-02-13T05:49:56;6.30;99.90
52531;DHT22;38441;52.894;6.040;2023-02-13T05:52:21;6.30;99.90
52531;DHT22;38441;52.894;6.040;2023-02-13T06:06:58;6.10;99.90
52531;DHT22;38441;52.894;6.040;2023-02-13T06:11:49;6.20;99.90
52531;DHT22;38441;52.894;6.040;2023-02-13T06:14:15;6.20;99.90
52531;DHT22;38441;52.894;6.040;2023-02-13T06:24:03;6.30;99.90
52531;DHT22;38441;52.894;6.040;2023-02-13T06:26:29;6.30;99.90
52531;DHT22;38441;52.894;6.040;2023-02-13T06:28:55;6.20;99.90
52531;DHT22;38441;52.894;6.040;2023-02-13T06:38:39;6.30;99.90
52531;DHT22;38441;52.894;6.040;2023-02-13T06:43:31;6.30;99.90
52531;DHT22;38441;52.894;6.040;2023-02-13T06:45:57;6.30;99.90
52531;DHT22;38441;52.894;6.040;2023-02-13T06:48:23;6.30;99.90
52531;DHT22;38441;52.894;6.040;2023-02-13T06:50:49;6.30;99.90
52531;DHT22;38441;52.894;6.040;2023-02-13T06:53:17;6.30;99.90
52531;DHT22;38441;52.894;6.040;2023-02-13T06:55:44;6.30;99.90
52531;DHT22;38441;52.894;6.040;2023-02-13T07:00:36;6.30;99.90
52531;DHT22;38441;52.894;6.040;2023-02-13T07:03:03;6.30;99.90
52531;DHT22;38441;52.894;6.040;2023-02-13T07:10:22;6.30;99.90
52531;DHT22;38441;52.894;6.040;2023-02-13T07:12:47;6.20;99.90
52531;DHT22;38441;52.894;6.040;2023-02-13T07:15:14;6.30;99.90
52531;DHT22;38441;52.894;6.040;2023-02-13T07:17:40;6.30;99.90
52531;DHT22;38441;52.894;6.040;2023-02-13T07:20:06;6.30;99.90
52531;DHT22;38441;52.894;6.040;2023-02-13T07:22:33;6.30;99.90
52531;DHT22;38441;52.894;6.040;2023-02-13T07:24:59;6.30;99.90
52531;DHT22;38441;52.894;6.040;2023-02-13T07:29:57;6.30;99.90
52531;DHT22;38441;52.894;6.040;2023-02-13T07:32:23;6.30;99.90
52531;DHT22;38441;52.894;6.040;2023-02-13T07:39:41;6.30;99.90
52531;DHT22;38441;52.894;6.040;2023-02-13T07:46:59;6.30;99.90
52531;DHT22;38441;52.894;6.040;2023-02-13T07:54:17;6.30;99.90
52531;DHT22;38441;52.894;6.040;2023-02-13T07:56:43;6.30;99.90
52531;DHT22;38441;52.894;6.040;2023-02-13T07:59:09;6.40;99.90
52531;DHT22;38441;52.894;6.040;2023-02-13T08:01:35;6.30;99.90
52531;DHT22;38441;52.894;6.040;2023-02-13T08:06:27;6.40;99.90
52531;DHT22;38441;52.894;6.040;2023-02-13T08:08:52;6.40;99.90
52531;DHT22;38441;52.894;6.040;2023-02-13T08:14:24;6.50;99.90
52531;DHT22;38441;52.894;6.040;2023-02-13T08:16:50;6.40;99.90
52531;DHT22;38441;52.894;6.040;2023-02-13T08:19:16;6.50;99.90
52531;DHT22;38441;52.894;6.040;2023-02-13T08:21:42;6.50;99.90
52531;DHT22;38441;52.894;6.040;2023-02-13T08:26:34;6.50;99.90
52531;DHT22;38441;52.894;6.040;2023-02-13T08:29:00;6.50;99.90
52531;DHT22;38441;52.894;6.040;2023-02-13T08:33:52;6.50;99.90
52531;DHT22;38441;52.894;6.040;2023-02-13T08:36:18;6.50;99.90
52531;DHT22;38441;52.894;6.040;2023-02-13T08:38:47;6.50;99.90
52531;DHT22;38441;52.894;6.040;2023-02-13T08:41:13;6.50;99.90
52531;DHT22;38441;52.894;6.040;2023-02-13T08:46:05;6.70;99.90
52531;DHT22;38441;52.894;6.040;2023-02-13T08:48:30;6.50;99.90
52531;DHT22;38441;52.894;6.040;2023-02-13T08:50:56;6.60;99.90
52531;DHT22;38441;52.894;6.040;2023-02-13T08:55:56;6.80;99.90
52531;DHT22;38441;52.894;6.040;2023-02-13T08:58:22;6.60;99.90
52531;DHT22;38441;52.894;6.040;2023-02-13T09:00:48;6.70;99.90
52531;DHT22;38441;52.894;6.040;2023-02-13T09:05:40;6.70;99.90
52531;DHT22;38441;52.894;6.040;2023-02-13T09:10:33;6.80;99.90
52531;DHT22;38441;52.894;6.040;2023-02-13T09:12:59;6.80;99.90
52531;DHT22;38441;52.894;6.040;2023-02-13T09:15:28;6.80;99.90
52531;DHT22;38441;52.894;6.040;2023-02-13T09:17:54;6.80;99.90
52531;DHT22;38441;52.894;6.040;2023-02-13T09:30:05;6.90;99.90
52531;DHT22;38441;52.894;6.040;2023-02-13T09:37:25;7.00;99.90
52531;DHT22;38441;52.894;6.040;2023-02-13T09:42:25;7.10;99.90
52531;DHT22;38441;52.894;6.040;2023-02-13T09:44:57;6.90;99.90
52531;DHT22;38441;52.894;6.040;2023-02-13T09:47:35;7.10;99.90
52531;DHT22;38441;52.894;6.040;2023-02-13T09:50:24;7.20;99.90
52531;DHT22;38441;52.894;6.040;2023-02-13T09:52:53;7.00;99.90
52531;DHT22;38441;52.894;6.040;2023-02-13T09:55:34;7.10;99.90
52531;DHT22;38441;52.894;6.040;2023-02-13T10:00:41;7.20;99.90
52531;DHT22;38441;52.894;6.040;2023-02-13T10:06:12;7.10;99.90
52531;DHT22;38441;52.894;6.040;2023-02-13T10:21:57;7.50;99.90
52531;DHT22;38441;52.894;6.040;2023-02-13T10:24:33;7.40;99.90
52531;DHT22;38441;52.894;6.040;2023-02-13T10:28:04;7.50;99.90
52531;DHT22;38441;52.894;6.040;2023-02-13T10:30:05;7.40;99.90
52531;DHT22;38441;52.894;6.040;2023-02-13T10:32:42;7.50;99.90
52531;DHT22;38441;52.894;6.040;2023-02-13T10:35:19;7.70;99.90
52531;DHT22;38441;52.894;6.040;2023-02-13T10:37:48;7.70;99.90
52531;DHT22;38441;52.894;6.040;2023-02-13T10:40:17;7.80;99.90
52531;DHT22;38441;52.894;6.040;2023-02-13T10:42:44;7.90;99.90
52531;DHT22;38441;52.894;6.040;2023-02-13T10:48:00;7.80;99.90
52531;DHT22;38441;52.894;6.040;2023-02-13T10:58:43;7.90;99.90
52531;DHT22;38441;52.894;6.040;2023-02-13T11:01:24;7.80;99.90
52531;DHT22;38441;52.894;6.040;2023-02-13T11:04:17;8.00;99.90
52531;DHT22;38441;52.894;6.040;2023-02-13T11:06:57;8.00;99.90
52531;DHT22;38441;52.894;6.040;2023-02-13T11:09:23;8.10;99.90
52531;DHT22;38441;52.894;6.040;2023-02-13T11:11:50;8.10;99.90
52531;DHT22;38441;52.894;6.040;2023-02-13T11:14:24;8.10;99.90
52531;DHT22;38441;52.894;6.040;2023-02-13T11:16:54;8.20;99.90
52531;DHT22;38441;52.894;6.040;2023-02-13T11:21:55;8.20;99.90
52531;DHT22;38441;52.894;6.040;2023-02-13T11:24:24;8.30;99.90
52531;DHT22;38441;52.894;6.040;2023-02-13T11:26:57;8.30;99.90
52531;DHT22;38441;52.894;6.040;2023-02-13T11:29:32;8.40;99.90
52531;DHT22;38441;52.894;6.040;2023-02-13T11:34:38;8.50;99.90
52531;DHT22;38441;52.894;6.040;2023-02-13T11:37:17;9.50;99.90
52531;DHT22;38441;52.894;6.040;2023-02-13T11:39:45;8.60;99.90
52531;DHT22;38441;52.894;6.040;2023-02-13T11:42:18;8.50;99.90
52531;DHT22;38441;52.894;6.040;2023-02-13T11:44:50;9.80;99.90
52531;DHT22;38441;52.894;6.040;2023-02-13T11:47:33;8.60;99.90
52531;DHT22;38441;52.894;6.040;2023-02-13T11:49:59;8.60;99.90
52531;DHT22;38441;52.894;6.040;2023-02-13T11:52:31;8.30;99.90
52531;DHT22;38441;52.894;6.040;2023-02-13T11:55:00;8.70;99.90
52531;DHT22;38441;52.894;6.040;2023-02-13T11:57:34;8.70;99.90
52531;DHT22;38441;52.894;6.040;2023-02-13T12:00:30;8.90;99.90
52531;DHT22;38441;52.894;6.040;2023-02-13T12:02:59;8.80;99.90
52531;DHT22;38441;52.894;6.040;2023-02-13T12:05:26;9.00;99.90
52531;DHT22;38441;52.894;6.040;2023-02-13T12:07:59;8.90;99.90
52531;DHT22;38441;52.894;6.040;2023-02-13T12:10:27;8.80;99.90
52531;DHT22;38441;52.894;6.040;2023-02-13T12:13:13;8.90;99.90
52531;DHT22;38441;52.894;6.040;2023-02-13T12:15:42;9.30;99.90
52531;DHT22;38441;52.894;6.040;2023-02-13T12:18:24;7.80;99.90
52531;DHT22;38441;52.894;6.040;2023-02-13T12:34:41;9.10;99.90
52531;DHT22;38441;52.894;6.040;2023-02-13T12:37:39;10.20;99.90
52531;DHT22;38441;52.894;6.040;2023-02-13T12:43:19;9.50;99.90
52531;DHT22;38441;52.894;6.040;2023-02-13T12:59:54;9.40;99.90
52531;DHT22;38441;52.894;6.040;2023-02-13T13:05:23;9.10;99.90
52531;DHT22;38441;52.894;6.040;2023-02-13T13:11:14;9.30;99.90
52531;DHT22;38441;52.894;6.040;2023-02-13T13:21:35;9.40;99.90
52531;DHT22;38441;52.894;6.040;2023-02-13T13:24:17;9.40;99.90
52531;DHT22;38441;52.894;6.040;2023-02-13T13:26:48;11.70;99.90
52531;DHT22;38441;52.894;6.040;2023-02-13T13:32:18;9.20;99.90
52531;DHT22;38441;52.894;6.040;2023-02-13T13:34:45;9.40;99.90
52531;DHT22;38441;52.894;6.040;2023-02-13T13:37:44;8.30;99.90
52531;DHT22;38441;52.894;6.040;2023-02-13T13:40:29;9.20;99.90
52531;DHT22;38441;52.894;6.040;2023-02-13T13:45:51;8.10;99.90
52531;DHT22;38441;52.894;6.040;2023-02-13T13:48:54;9.30;99.90
52531;DHT22;38441;52.894;6.040;2023-02-13T13:51:23;10.20;99.90
52531;DHT22;38441;52.894;6.040;2023-02-13T14:07:48;9.30;99.90
52531;DHT22;38441;52.894;6.040;2023-02-13T14:12:46;11.10;99.90
52531;DHT22;38441;52.894;6.040;2023-02-13T14:18:22;9.80;99.90
52531;DHT22;38441;52.894;6.040;2023-02-13T14:28:55;9.40;99.90
52531;DHT22;38441;52.894;6.040;2023-02-13T14:31:30;9.60;99.90
52531;DHT22;38441;52.894;6.040;2023-02-13T14:34:06;9.10;99.90
52531;DHT22;38441;52.894;6.040;2023-02-13T14:36:38;9.20;99.90
52531;DHT22;38441;52.894;6.040;2023-02-13T14:44:33;10.40;99.90
52531;DHT22;38441;52.894;6.040;2023-02-13T14:47:13;9.30;99.90
52531;DHT22;38441;52.894;6.040;2023-02-13T14:49:43;9.50;99.90
52531;DHT22;38441;52.894;6.040;2023-02-13T14:52:18;8.40;99.90
52531;DHT22;38441;52.894;6.040;2023-02-13T14:54:49;9.20;99.90
52531;DHT22;38441;52.894;6.040;2023-02-13T14:57:22;11.50;99.90
52531;DHT22;38441;52.894;6.040;2023-02-13T14:59:58;7.80;99.90
52531;DHT22;38441;52.894;6.040;2023-02-13T15:02:27;9.30;99.90
52531;DHT22;38441;52.894;6.040;2023-02-13T15:05:02;10.30;99.90
52531;DHT22;38441;52.894;6.040;2023-02-13T15:07:35;9.80;99.90
52531;DHT22;38441;52.894;6.040;2023-02-13T15:10:38;9.40;99.90
52531;DHT22;38441;52.894;6.040;2023-02-13T15:13:14;9.20;99.90
52531;DHT22;38441;52.894;6.040;2023-02-13T15:15:40;9.30;99.90
52531;DHT22;38441;52.894;6.040;2023-02-13T15:18:18;9.80;99.90
52531;DHT22;38441;52.894;6.040;2023-02-13T15:20:44;9.50;99.90
52531;DHT22;38441;52.894;6.040;2023-02-13T15:23:36;9.20;99.90
52531;DHT22;38441;52.894;6.040;2023-02-13T15:26:03;8.80;99.90
52531;DHT22;38441;52.894;6.040;2023-02-13T15:28:31;9.40;99.90
52531;DHT22;38441;52.894;6.040;2023-02-13T15:33:44;10.80;99.90
52531;DHT22;38441;52.894;6.040;2023-02-13T15:36:21;9.20;99.90
52531;DHT22;38441;52.894;6.040;2023-02-13T15:38:48;9.00;99.90
52531;DHT22;38441;52.894;6.040;2023-02-13T15:41:26;9.00;99.90
52531;DHT22;38441;52.894;6.040;2023-02-13T15:43:58;9.10;99.90
52531;DHT22;38441;52.894;6.040;2023-02-13T15:46:35;9.70;99.90
52531;DHT22;38441;52.894;6.040;2023-02-13T15:49:08;9.70;99.90
52531;DHT22;38441;52.894;6.040;2023-02-13T15:51:35;10.60;99.90
52531;DHT22;38441;52.894;6.040;2023-02-13T15:54:03;8.70;99.90
52531;DHT22;38441;52.894;6.040;2023-02-13T15:56:30;8.70;99.90
52531;DHT22;38441;52.894;6.040;2023-02-13T15:58:57;9.70;99.90
52531;DHT22;38441;52.894;6.040;2023-02-13T16:01:23;10.40;99.90
52531;DHT22;38441;52.894;6.040;2023-02-13T16:03:55;9.20;99.90
52531;DHT22;38441;52.894;6.040;2023-02-13T16:06:22;8.70;99.90
52531;DHT22;38441;52.894;6.040;2023-02-13T16:09:00;7.20;99.90
52531;DHT22;38441;52.894;6.040;2023-02-13T16:14:00;10.40;99.90
52531;DHT22;38441;52.894;6.040;2023-02-13T16:16:34;9.40;99.90
52531;DHT22;38441;52.894;6.040;2023-02-13T16:19:00;8.40;99.90
52531;DHT22;38441;52.894;6.040;2023-02-13T16:21:27;7.90;99.90
52531;DHT22;38441;52.894;6.040;2023-02-13T16:24:03;8.30;99.90
52531;DHT22;38441;52.894;6.040;2023-02-13T16:26:30;8.40;99.90
52531;DHT22;38441;52.894;6.040;2023-02-13T16:28:56;8.80;99.90
52531;DHT22;38441;52.894;6.040;2023-02-13T16:31:22;8.00;99.90
52531;DHT22;38441;52.894;6.040;2023-02-13T16:33:48;8.10;99.90
52531;DHT22;38441;52.894;6.040;2023-02-13T16:38:44;9.00;99.90
52531;DHT22;38441;52.894;6.040;2023-02-13T16:43:44;7.70;99.90
52531;DHT22;38441;52.894;6.040;2023-02-13T16:54:24;9.70;99.90
52531;DHT22;38441;52.894;6.040;2023-02-13T16:57:04;7.30;99.90
52531;DHT22;38441;52.894;6.040;2023-02-13T17:02:21;6.40;99.90
52531;DHT22;38441;52.894;6.040;2023-02-13T17:07:26;7.40;99.90
52531;DHT22;38441;52.894;6.040;2023-02-13T17:10:00;7.90;99.90
52531;DHT22;38441;52.894;6.040;2023-02-13T17:12:28;7.20;99.90
52531;DHT22;38441;52.894;6.040;2023-02-13T17:14:58;7.10;99.90
52531;DHT22;38441;52.894;6.040;2023-02-13T17:17:27;7.10;99.90
52531;DHT22;38441;52.894;6.040;2023-02-13T17:19:52;7.00;99.90
52531;DHT22;38441;52.894;6.040;2023-02-13T17:22:39;6.80;99.90
52531;DHT22;38441;52.894;6.040;2023-02-13T17:25:14;6.80;99.90
52531;DHT22;38441;52.894;6.040;2023-02-13T17:27:41;6.90;99.90
52531;DHT22;38441;52.894;6.040;2023-02-13T17:30:16;6.60;99.90
52531;DHT22;38441;52.894;6.040;2023-02-13T17:32:44;6.70;99.90
52531;DHT22;38441;52.894;6.040;2023-02-13T17:35:11;6.70;99.90
52531;DHT22;38441;52.894;6.040;2023-02-13T17:37:37;7.40;99.90
52531;DHT22;38441;52.894;6.040;2023-02-13T17:40:04;6.60;99.90
52531;DHT22;38441;52.894;6.040;2023-02-13T17:42:30;6.70;99.90
52531;DHT22;38441;52.894;6.040;2023-02-13T17:44:57;7.90;99.90
52531;DHT22;38441;52.894;6.040;2023-02-13T17:47:24;6.60;99.90
52531;DHT22;38441;52.894;6.040;2023-02-13T17:49:50;6.70;99.90
52531;DHT22;38441;52.894;6.040;2023-02-13T17:52:21;6.50;99.90
52531;DHT22;38441;52.894;6.040;2023-02-13T17:57:15;6.60;99.90
52531;DHT22;38441;52.894;6.040;2023-02-13T18:02:21;6.50;99.90
52531;DHT22;38441;52.894;6.040;2023-02-13T18:04:48;6.40;99.90
52531;DHT22;38441;52.894;6.040;2023-02-13T18:07:16;6.40;99.90
52531;DHT22;38441;52.894;6.040;2023-02-13T18:12:34;6.70;99.90
52531;DHT22;38441;52.894;6.040;2023-02-13T18:15:00;6.60;99.90
52531;DHT22;38441;52.894;6.040;2023-02-13T18:22:18;6.40;99.90
52531;DHT22;38441;52.894;6.040;2023-02-13T18:24:43;6.30;99.90
52531;DHT22;38441;52.894;6.040;2023-02-13T18:27:09;6.20;99.90
52531;DHT22;38441;52.894;6.040;2023-02-13T18:29:38;6.20;99.90
52531;DHT22;38441;52.894;6.040;2023-02-13T18:32:05;6.30;99.90
52531;DHT22;38441;52.894;6.040;2023-02-13T18:34:33;6.00;99.90
52531;DHT22;38441;52.894;6.040;2023-02-13T18:46:43;6.00;99.90
52531;DHT22;38441;52.894;6.040;2023-02-13T18:49:10;5.90;99.90
52531;DHT22;38441;52.894;6.040;2023-02-13T19:03:49;5.70;99.90
52531;DHT22;38441;52.894;6.040;2023-02-13T19:06:19;5.70;99.90
52531;DHT22;38441;52.894;6.040;2023-02-13T19:11:18;5.50;99.90
52531;DHT22;38441;52.894;6.040;2023-02-13T19:13:45;5.60;99.90
52531;DHT22;38441;52.894;6.040;2023-02-13T19:16:17;5.50;99.90
52531;DHT22;38441;52.894;6.040;2023-02-13T19:18:46;5.50;99.90
52531;DHT22;38441;52.894;6.040;2023-02-13T19:23:39;5.60;99.90
52531;DHT22;38441;52.894;6.040;2023-02-13T19:26:06;5.40;99.90
52531;DHT22;38441;52.894;6.040;2023-02-13T19:31:22;5.50;99.90
52531;DHT22;38441;52.894;6.040;2023-02-13T19:33:49;5.30;99.90
52531;DHT22;38441;52.894;6.040;2023-02-13T19:36:19;5.30;99.90
52531;DHT22;38441;52.894;6.040;2023-02-13T19:38:46;5.40;99.90
52531;DHT22;38441;52.894;6.040;2023-02-13T19:41:15;5.20;99.90
52531;DHT22;38441;52.894;6.040;2023-02-13T19:46:14;5.40;99.90
52531;DHT22;38441;52.894;6.040;2023-02-13T19:51:10;5.30;99.90
52531;DHT22;38441;52.894;6.040;2023-02-13T19:56:03;5.20;99.90
52531;DHT22;38441;52.894;6.040;2023-02-13T20:10:44;5.00;99.90
52531;DHT22;38441;52.894;6.040;2023-02-13T20:15:39;4.80;99.90
52531;DHT22;38441;52.894;6.040;2023-02-13T20:18:05;4.90;99.90
52531;DHT22;38441;52.894;6.040;2023-02-13T20:35:10;5.00;99.90
52531;DHT22;38441;52.894;6.040;2023-02-13T20:42:31;4.80;99.90
52531;DHT22;38441;52.894;6.040;2023-02-13T21:14:12;4.70;99.90
52531;DHT22;38441;52.894;6.040;2023-02-13T21:16:39;4.70;99.90
52531;DHT22;38441;52.894;6.040;2023-02-13T21:19:14;4.80;99.90
52531;DHT22;38441;52.894;6.040;2023-02-13T21:24:13;4.60;99.90
52531;DHT22;38441;52.894;6.040;2023-02-13T21:31:38;4.50;99.90
52531;DHT22;38441;52.894;6.040;2023-02-13T21:34:10;4.40;99.90
52531;DHT22;38441;52.894;6.040;2023-02-13T21:39:04;4.50;99.90
52531;DHT22;38441;52.894;6.040;2023-02-13T21:46:24;4.30;99.90
52531;DHT22;38441;52.894;6.040;2023-02-13T21:48:54;4.30;99.90
52531;DHT22;38441;52.894;6.040;2023-02-13T21:51:21;4.50;99.90
52531;DHT22;38441;52.894;6.040;2023-02-13T21:53:48;4.30;99.90
52531;DHT22;38441;52.894;6.040;2023-02-13T21:56:25;4.40;99.90
52531;DHT22;38441;52.894;6.040;2023-02-13T22:01:31;4.30;99.90
52531;DHT22;38441;52.894;6.040;2023-02-13T22:03:59;4.30;99.90
52531;DHT22;38441;52.894;6.040;2023-02-13T22:06:26;4.10;99.90
52531;DHT22;38441;52.894;6.040;2023-02-13T22:09:06;4.20;99.90
52531;DHT22;38441;52.894;6.040;2023-02-13T22:14:00;4.20;99.90
52531;DHT22;38441;52.894;6.040;2023-02-13T22:16:28;4.30;99.90
52531;DHT22;38441;52.894;6.040;2023-02-13T22:21:22;4.30;99.90
52531;DHT22;38441;52.894;6.040;2023-02-13T22:26:17;4.20;99.90
52531;DHT22;38441;52.894;6.040;2023-02-13T22:31:10;4.10;99.90
52531;DHT22;38441;52.894;6.040;2023-02-13T22:38:31;4.20;99.90
52531;DHT22;38441;52.894;6.040;2023-02-13T22:41:06;4.00;99.90
52531;DHT22;38441;52.894;6.040;2023-02-13T22:46:17;4.00;99.90
52531;DHT22;38441;52.894;6.040;2023-02-13T22:51:18;3.80;99.90
52531;DHT22;38441;52.894;6.040;2023-02-13T22:56:11;4.00;99.90
52531;DHT22;38441;52.894;6.040;2023-02-13T23:01:13;3.90;99.90
52531;DHT22;38441;52.894;6.040;2023-02-13T23:16:12;3.70;99.90
52531;DHT22;38441;52.894;6.040;2023-02-13T23:21:05;3.80;99.90
52531;DHT22;38441;52.894;6.040;2023-02-13T23:26:02;3.70;99.90
